sensor_id;sensor_type;location;lat;lon;timestamp;temperature;humidity
44607;DHT22;30315;46.072;14.474;2023-11-19T00:00:21;5.80;71.80
44607;DHT22;30315;46.072;14.474;2023-11-19T00:02:48;5.80;71.80
44607;DHT22;30315;46.072;14.474;2023-11-19T00:05:22;5.70;71.80
44607;DHT22;30315;46.072;14.474;2023-11-19T00:07:56;5.80;71.90
44607;DHT22;30315;46.072;14.474;2023-11-19T00:10:33;5.70;72.10
44607;DHT22;30315;46.072;14.474;2023-11-19T00:13:05;5.80;72.30
44607;DHT22;30315;46.072;14.474;2023-11-19T00:15:34;5.70;72.20
44607;DHT22;30315;46.072;14.474;2023-11-19T00:18:23;5.70;72.30
44607;DHT22;30315;46.072;14.474;2023-11-19T00:21:03;5.70;72.30
44607;DHT22;30315;46.072;14.474;2023-11-19T00:23:34;5.70;72.80
44607;DHT22;30315;46.072;14.474;2023-11-19T00:26:10;5.70;72.40
44607;DHT22;30315;46.072;14.474;2023-11-19T00:28:52;5.70;72.50
44607;DHT22;30315;46.072;14.474;2023-11-19T00:31:22;5.70;72.60
44607;DHT22;30315;46.072;14.474;2023-11-19T00:33:59;5.70;72.60
44607;DHT22;30315;46.072;14.474;2023-11-19T00:36:26;5.70;72.70
44607;DHT22;30315;46.072;14.474;2023-11-19T00:38:56;5.70;72.70
44607;DHT22;30315;46.072;14.474;2023-11-19T00:41:30;5.70;72.80
44607;DHT22;30315;46.072;14.474;2023-11-19T00:44:07;5.70;72.80
44607;DHT22;30315;46.072;14.474;2023-11-19T00:46:44;5.70;72.70
44607;DHT22;30315;46.072;14.474;2023-11-19T00:49:13;5.70;72.70
44607;DHT22;30315;46.072;14.474;2023-11-19T00:51:44;5.70;72.90
44607;DHT22;30315;46.072;14.474;2023-11-19T00:54:24;5.60;72.90
44607;DHT22;30315;46.072;14.474;2023-11-19T00:56:53;5.60;72.60
44607;DHT22;30315;46.072;14.474;2023-11-19T00:59:27;5.60;72.60
44607;DHT22;30315;46.072;14.474;2023-11-19T01:01:55;5.60;72.60
44607;DHT22;30315;46.072;14.474;2023-11-19T01:04:23;5.60;72.60
44607;DHT22;30315;46.072;14.474;2023-11-19T01:06:51;5.60;72.50
44607;DHT22;30315;46.072;14.474;2023-11-19T01:09:26;5.60;72.50
44607;DHT22;30315;46.072;14.474;2023-11-19T01:12:25;5.50;72.40
44607;DHT22;30315;46.072;14.474;2023-11-19T01:14:52;5.50;72.40
44607;DHT22;30315;46.072;14.474;2023-11-19T01:17:20;5.50;72.60
44607;DHT22;30315;46.072;14.474;2023-11-19T01:20:10;5.50;72.70
44607;DHT22;30315;46.072;14.474;2023-11-19T01:22:40;5.50;72.50
44607;DHT22;30315;46.072;14.474;2023-11-19T01:26:01;5.50;72.60
44607;DHT22;30315;46.072;14.474;2023-11-19T01:28:29;5.50;72.70
44607;DHT22;30315;46.072;14.474;2023-11-19T01:30:58;5.50;72.60
44607;DHT22;30315;46.072;14.474;2023-11-19T01:33:25;5.50;72.50
44607;DHT22;30315;46.072;14.474;2023-11-19T01:35:52;5.40;72.40
44607;DHT22;30315;46.072;14.474;2023-11-19T01:38:20;5.40;72.30
44607;DHT22;30315;46.072;14.474;2023-11-19T01:40:48;5.40;72.40
44607;DHT22;30315;46.072;14.474;2023-11-19T01:43:33;5.30;72.40
44607;DHT22;30315;46.072;14.474;2023-11-19T01:46:05;5.30;72.50
44607;DHT22;30315;46.072;14.474;2023-11-19T01:48:35;5.20;72.40
44607;DHT22;30315;46.072;14.474;2023-11-19T01:51:04;5.30;72.60
44607;DHT22;30315;46.072;14.474;2023-11-19T01:53:33;5.30;72.70
44607;DHT22;30315;46.072;14.474;2023-11-19T01:56:04;5.20;72.50
44607;DHT22;30315;46.072;14.474;2023-11-19T01:58:57;5.20;72.50
44607;DHT22;30315;46.072;14.474;2023-11-19T02:01:37;5.20;72.60
44607;DHT22;30315;46.072;14.474;2023-11-19T02:04:08;5.20;72.80
44607;DHT22;30315;46.072;14.474;2023-11-19T02:06:54;5.10;72.80
44607;DHT22;30315;46.072;14.474;2023-11-19T02:09:24;5.10;73.00
44607;DHT22;30315;46.072;14.474;2023-11-19T02:11:51;5.10;73.00
44607;DHT22;30315;46.072;14.474;2023-11-19T02:14:31;5.10;73.10
44607;DHT22;30315;46.072;14.474;2023-11-19T02:16:59;5.10;73.00
44607;DHT22;30315;46.072;14.474;2023-11-19T02:19:27;5.10;72.70
44607;DHT22;30315;46.072;14.474;2023-11-19T02:21:54;5.00;72.50
44607;DHT22;30315;46.072;14.474;2023-11-19T02:31:12;5.10;72.70
44607;DHT22;30315;46.072;14.474;2023-11-19T02:33:40;5.00;72.90
44607;DHT22;30315;46.072;14.474;2023-11-19T02:36:44;5.00;72.90
44607;DHT22;30315;46.072;14.474;2023-11-19T02:39:17;5.00;72.90
44607;DHT22;30315;46.072;14.474;2023-11-19T02:41:49;5.00;72.90
44607;DHT22;30315;46.072;14.474;2023-11-19T02:44:28;5.00;72.80
44607;DHT22;30315;46.072;14.474;2023-11-19T02:46:57;5.00;72.90
44607;DHT22;30315;46.072;14.474;2023-11-19T02:49:27;5.00;72.90
44607;DHT22;30315;46.072;14.474;2023-11-19T02:51:54;4.90;72.80
44607;DHT22;30315;46.072;14.474;2023-11-19T02:54:22;4.90;72.90
44607;DHT22;30315;46.072;14.474;2023-11-19T02:56:54;4.90;72.80
44607;DHT22;30315;46.072;14.474;2023-11-19T02:59:26;5.00;72.90
44607;DHT22;30315;46.072;14.474;2023-11-19T03:01:57;4.90;72.80
44607;DHT22;30315;46.072;14.474;2023-11-19T03:04:27;4.90;72.80
44607;DHT22;30315;46.072;14.474;2023-11-19T03:06:56;4.90;72.70
44607;DHT22;30315;46.072;14.474;2023-11-19T03:09:30;4.90;72.80
44607;DHT22;30315;46.072;14.474;2023-11-19T03:11:58;4.90;72.80
44607;DHT22;30315;46.072;14.474;2023-11-19T03:14:25;4.80;72.70
44607;DHT22;30315;46.072;14.474;2023-11-19T03:16:53;4.80;72.70
44607;DHT22;30315;46.072;14.474;2023-11-19T03:19:22;4.80;72.90
44607;DHT22;30315;46.072;14.474;2023-11-19T03:21:52;4.80;72.90
44607;DHT22;30315;46.072;14.474;2023-11-19T03:24:20;4.80;72.80
44607;DHT22;30315;46.072;14.474;2023-11-19T03:26:54;4.80;72.90
44607;DHT22;30315;46.072;14.474;2023-11-19T03:29:21;4.70;72.80
44607;DHT22;30315;46.072;14.474;2023-11-19T03:31:50;4.70;72.70
44607;DHT22;30315;46.072;14.474;2023-11-19T03:34:17;4.70;72.70
44607;DHT22;30315;46.072;14.474;2023-11-19T03:36:46;4.70;72.70
44607;DHT22;30315;46.072;14.474;2023-11-19T03:39:13;4.70;73.00
44607;DHT22;30315;46.072;14.474;2023-11-19T03:41:47;4.70;73.00
44607;DHT22;30315;46.072;14.474;2023-11-19T03:44:15;4.70;72.90
44607;DHT22;30315;46.072;14.474;2023-11-19T03:46:43;4.60;73.00
44607;DHT22;30315;46.072;14.474;2023-11-19T03:49:11;4.60;73.10
44607;DHT22;30315;46.072;14.474;2023-11-19T03:51:39;4.60;73.20
44607;DHT22;30315;46.072;14.474;2023-11-19T03:54:12;4.50;73.00
44607;DHT22;30315;46.072;14.474;2023-11-19T03:56:43;4.50;73.20
44607;DHT22;30315;46.072;14.474;2023-11-19T03:59:17;4.50;73.30
44607;DHT22;30315;46.072;14.474;2023-11-19T04:01:46;4.50;73.50
44607;DHT22;30315;46.072;14.474;2023-11-19T04:04:14;4.50;73.60
44607;DHT22;30315;46.072;14.474;2023-11-19T04:06:46;4.50;73.50
44607;DHT22;30315;46.072;14.474;2023-11-19T04:09:14;4.50;73.70
44607;DHT22;30315;46.072;14.474;2023-11-19T04:11:57;4.50;73.10
44607;DHT22;30315;46.072;14.474;2023-11-19T04:14:25;4.50;73.10
44607;DHT22;30315;46.072;14.474;2023-11-19T04:16:54;4.50;73.20
44607;DHT22;30315;46.072;14.474;2023-11-19T04:19:23;4.50;73.20
44607;DHT22;30315;46.072;14.474;2023-11-19T04:21:50;4.50;73.40
44607;DHT22;30315;46.072;14.474;2023-11-19T04:24:19;4.50;73.60
44607;DHT22;30315;46.072;14.474;2023-11-19T04:26:46;4.50;73.80
44607;DHT22;30315;46.072;14.474;2023-11-19T04:29:16;4.60;74.10
44607;DHT22;30315;46.072;14.474;2023-11-19T04:31:50;4.60;74.00
44607;DHT22;30315;46.072;14.474;2023-11-19T04:34:18;4.60;73.80
44607;DHT22;30315;46.072;14.474;2023-11-19T04:36:45;4.60;73.70
44607;DHT22;30315;46.072;14.474;2023-11-19T04:39:13;4.60;73.80
44607;DHT22;30315;46.072;14.474;2023-11-19T04:41:52;4.70;74.00
44607;DHT22;30315;46.072;14.474;2023-11-19T04:44:22;4.70;73.90
44607;DHT22;30315;46.072;14.474;2023-11-19T04:47:06;4.70;73.70
44607;DHT22;30315;46.072;14.474;2023-11-19T04:49:47;4.70;73.60
44607;DHT22;30315;46.072;14.474;2023-11-19T04:52:28;4.70;73.60
44607;DHT22;30315;46.072;14.474;2023-11-19T04:54:59;4.70;73.80
44607;DHT22;30315;46.072;14.474;2023-11-19T04:57:49;4.70;73.80
44607;DHT22;30315;46.072;14.474;2023-11-19T05:00:16;4.70;73.80
44607;DHT22;30315;46.072;14.474;2023-11-19T05:02:44;4.80;74.00
44607;DHT22;30315;46.072;14.474;2023-11-19T05:05:15;4.70;74.10
44607;DHT22;30315;46.072;14.474;2023-11-19T05:07:52;4.80;74.30
44607;DHT22;30315;46.072;14.474;2023-11-19T05:10:20;4.80;74.30
44607;DHT22;30315;46.072;14.474;2023-11-19T05:12:49;4.80;74.40
44607;DHT22;30315;46.072;14.474;2023-11-19T05:15:17;4.80;74.50
44607;DHT22;30315;46.072;14.474;2023-11-19T05:17:47;4.90;74.70
44607;DHT22;30315;46.072;14.474;2023-11-19T05:20:32;4.90;74.80
44607;DHT22;30315;46.072;14.474;2023-11-19T05:23:01;5.00;74.90
44607;DHT22;30315;46.072;14.474;2023-11-19T05:25:28;5.00;74.70
44607;DHT22;30315;46.072;14.474;2023-11-19T05:28:03;5.00;74.60
44607;DHT22;30315;46.072;14.474;2023-11-19T05:30:48;5.00;74.50
44607;DHT22;30315;46.072;14.474;2023-11-19T05:33:23;5.00;74.40
44607;DHT22;30315;46.072;14.474;2023-11-19T05:35:51;5.00;74.20
44607;DHT22;30315;46.072;14.474;2023-11-19T05:38:32;5.10;74.20
44607;DHT22;30315;46.072;14.474;2023-11-19T05:40:59;5.00;74.20
44607;DHT22;30315;46.072;14.474;2023-11-19T05:43:27;5.10;74.20
44607;DHT22;30315;46.072;14.474;2023-11-19T05:45:56;5.10;73.90
44607;DHT22;30315;46.072;14.474;2023-11-19T05:48:25;5.10;73.50
44607;DHT22;30315;46.072;14.474;2023-11-19T05:50:53;5.00;73.60
44607;DHT22;30315;46.072;14.474;2023-11-19T05:53:23;5.00;73.80
44607;DHT22;30315;46.072;14.474;2023-11-19T05:55:53;5.00;73.90
44607;DHT22;30315;46.072;14.474;2023-11-19T05:58:25;5.00;74.00
44607;DHT22;30315;46.072;14.474;2023-11-19T06:00:54;5.00;74.10
44607;DHT22;30315;46.072;14.474;2023-11-19T06:03:22;5.00;74.20
44607;DHT22;30315;46.072;14.474;2023-11-19T06:05:49;4.90;74.20
44607;DHT22;30315;46.072;14.474;2023-11-19T06:08:28;5.00;74.30
44607;DHT22;30315;46.072;14.474;2023-11-19T06:10:57;5.00;74.10
44607;DHT22;30315;46.072;14.474;2023-11-19T06:13:31;5.00;74.20
44607;DHT22;30315;46.072;14.474;2023-11-19T06:15:59;5.10;74.40
44607;DHT22;30315;46.072;14.474;2023-11-19T06:18:36;5.00;74.30
44607;DHT22;30315;46.072;14.474;2023-11-19T06:21:04;5.00;74.30
44607;DHT22;30315;46.072;14.474;2023-11-19T06:23:49;5.00;74.30
44607;DHT22;30315;46.072;14.474;2023-11-19T06:26:19;5.10;74.40
44607;DHT22;30315;46.072;14.474;2023-11-19T06:28:50;5.10;74.40
44607;DHT22;30315;46.072;14.474;2023-11-19T06:31:18;5.00;74.30
44607;DHT22;30315;46.072;14.474;2023-11-19T06:33:49;5.10;74.50
44607;DHT22;30315;46.072;14.474;2023-11-19T06:36:16;5.10;74.50
44607;DHT22;30315;46.072;14.474;2023-11-19T06:38:57;5.10;74.50
44607;DHT22;30315;46.072;14.474;2023-11-19T06:41:25;5.10;74.50
44607;DHT22;30315;46.072;14.474;2023-11-19T06:44:26;5.20;74.60
44607;DHT22;30315;46.072;14.474;2023-11-19T06:46:59;5.20;74.60
44607;DHT22;30315;46.072;14.474;2023-11-19T06:49:28;5.20;74.80
44607;DHT22;30315;46.072;14.474;2023-11-19T06:51:55;5.20;74.90
44607;DHT22;30315;46.072;14.474;2023-11-19T06:54:24;5.30;75.00
44607;DHT22;30315;46.072;14.474;2023-11-19T06:56:55;5.30;75.00
44607;DHT22;30315;46.072;14.474;2023-11-19T06:59:24;5.30;75.00
44607;DHT22;30315;46.072;14.474;2023-11-19T07:01:51;5.30;75.10
44607;DHT22;30315;46.072;14.474;2023-11-19T07:04:18;5.40;75.20
44607;DHT22;30315;46.072;14.474;2023-11-19T07:07:02;5.40;75.20
44607;DHT22;30315;46.072;14.474;2023-11-19T07:09:30;5.50;75.20
44607;DHT22;30315;46.072;14.474;2023-11-19T07:12:00;5.40;75.10
44607;DHT22;30315;46.072;14.474;2023-11-19T07:14:29;5.40;75.20
44607;DHT22;30315;46.072;14.474;2023-11-19T07:17:08;5.50;75.40
44607;DHT22;30315;46.072;14.474;2023-11-19T07:19:58;5.50;75.40
44607;DHT22;30315;46.072;14.474;2023-11-19T07:22:39;5.50;75.50
44607;DHT22;30315;46.072;14.474;2023-11-19T07:25:32;5.50;75.60
44607;DHT22;30315;46.072;14.474;2023-11-19T07:28:52;5.50;75.80
44607;DHT22;30315;46.072;14.474;2023-11-19T07:31:20;5.50;76.00
44607;DHT22;30315;46.072;14.474;2023-11-19T07:33:50;5.60;76.10
44607;DHT22;30315;46.072;14.474;2023-11-19T07:36:26;5.70;76.30
44607;DHT22;30315;46.072;14.474;2023-11-19T07:38:59;5.80;76.40
44607;DHT22;30315;46.072;14.474;2023-11-19T07:41:27;5.90;76.00
44607;DHT22;30315;46.072;14.474;2023-11-19T07:44:00;5.90;75.80
44607;DHT22;30315;46.072;14.474;2023-11-19T07:46:28;5.60;75.30
44607;DHT22;30315;46.072;14.474;2023-11-19T07:48:55;6.00;75.10
44607;DHT22;30315;46.072;14.474;2023-11-19T07:51:23;6.00;74.80
44607;DHT22;30315;46.072;14.474;2023-11-19T07:53:50;6.00;74.80
44607;DHT22;30315;46.072;14.474;2023-11-19T07:56:25;6.10;74.90
44607;DHT22;30315;46.072;14.474;2023-11-19T07:59:27;6.10;74.90
44607;DHT22;30315;46.072;14.474;2023-11-19T08:02:08;6.10;74.80
44607;DHT22;30315;46.072;14.474;2023-11-19T08:05:20;6.10;74.80
44607;DHT22;30315;46.072;14.474;2023-11-19T08:07:50;6.10;74.90
44607;DHT22;30315;46.072;14.474;2023-11-19T08:10:23;6.10;74.50
44607;DHT22;30315;46.072;14.474;2023-11-19T08:12:50;6.10;74.50
44607;DHT22;30315;46.072;14.474;2023-11-19T08:18:14;6.10;74.60
44607;DHT22;30315;46.072;14.474;2023-11-19T08:20:46;6.30;74.90
44607;DHT22;30315;46.072;14.474;2023-11-19T08:23:22;6.20;74.80
44607;DHT22;30315;46.072;14.474;2023-11-19T08:25:54;6.30;74.90
44607;DHT22;30315;46.072;14.474;2023-11-19T08:28:24;6.40;74.90
44607;DHT22;30315;46.072;14.474;2023-11-19T08:31:41;6.30;74.70
44607;DHT22;30315;46.072;14.474;2023-11-19T08:34:18;6.40;74.60
44607;DHT22;30315;46.072;14.474;2023-11-19T08:37:02;6.40;74.50
44607;DHT22;30315;46.072;14.474;2023-11-19T08:39:33;6.40;74.50
44607;DHT22;30315;46.072;14.474;2023-11-19T08:42:02;6.40;74.50
44607;DHT22;30315;46.072;14.474;2023-11-19T08:44:43;6.50;74.50
44607;DHT22;30315;46.072;14.474;2023-11-19T08:47:30;6.50;74.50
44607;DHT22;30315;46.072;14.474;2023-11-19T08:50:00;6.60;74.40
44607;DHT22;30315;46.072;14.474;2023-11-19T08:52:37;6.60;74.20
44607;DHT22;30315;46.072;14.474;2023-11-19T08:55:37;6.60;74.10
44607;DHT22;30315;46.072;14.474;2023-11-19T08:58:05;6.60;73.50
44607;DHT22;30315;46.072;14.474;2023-11-19T09:00:40;6.60;73.10
44607;DHT22;30315;46.072;14.474;2023-11-19T09:03:26;6.60;72.90
44607;DHT22;30315;46.072;14.474;2023-11-19T09:17:58;6.80;72.90
44607;DHT22;30315;46.072;14.474;2023-11-19T09:20:33;6.80;73.10
44607;DHT22;30315;46.072;14.474;2023-11-19T09:23:17;6.80;73.30
44607;DHT22;30315;46.072;14.474;2023-11-19T09:29:55;7.00;73.50
44607;DHT22;30315;46.072;14.474;2023-11-19T09:35:18;7.20;73.50
44607;DHT22;30315;46.072;14.474;2023-11-19T09:40:59;7.40;73.50
44607;DHT22;30315;46.072;14.474;2023-11-19T09:43:57;7.50;73.50
44607;DHT22;30315;46.072;14.474;2023-11-19T09:46:41;7.70;73.50
44607;DHT22;30315;46.072;14.474;2023-11-19T09:49:41;7.80;73.50
44607;DHT22;30315;46.072;14.474;2023-11-19T09:52:36;7.90;73.40
44607;DHT22;30315;46.072;14.474;2023-11-19T09:55:10;7.90;73.10
44607;DHT22;30315;46.072;14.474;2023-11-19T09:57:41;8.00;72.90
44607;DHT22;30315;46.072;14.474;2023-11-19T10:00:23;8.10;73.10
44607;DHT22;30315;46.072;14.474;2023-11-19T10:06:15;8.20;72.90
44607;DHT22;30315;46.072;14.474;2023-11-19T10:08:57;8.30;72.90
44607;DHT22;30315;46.072;14.474;2023-11-19T10:11:34;8.30;72.50
44607;DHT22;30315;46.072;14.474;2023-11-19T10:14:02;8.40;72.30
44607;DHT22;30315;46.072;14.474;2023-11-19T10:16:30;8.80;72.10
44607;DHT22;30315;46.072;14.474;2023-11-19T10:19:29;8.50;71.80
44607;DHT22;30315;46.072;14.474;2023-11-19T10:22:04;8.40;71.50
44607;DHT22;30315;46.072;14.474;2023-11-19T10:24:32;8.70;71.70
44607;DHT22;30315;46.072;14.474;2023-11-19T10:30:29;8.60;71.40
44607;DHT22;30315;46.072;14.474;2023-11-19T10:33:07;8.60;71.30
44607;DHT22;30315;46.072;14.474;2023-11-19T10:35:57;8.60;71.00
44607;DHT22;30315;46.072;14.474;2023-11-19T10:38:33;8.60;71.00
44607;DHT22;30315;46.072;14.474;2023-11-19T10:41:35;8.60;70.90
44607;DHT22;30315;46.072;14.474;2023-11-19T10:44:33;8.40;70.90
44607;DHT22;30315;46.072;14.474;2023-11-19T10:47:14;8.70;71.20
44607;DHT22;30315;46.072;14.474;2023-11-19T10:49:50;8.70;71.10
44607;DHT22;30315;46.072;14.474;2023-11-19T10:52:18;8.80;70.70
44607;DHT22;30315;46.072;14.474;2023-11-19T10:55:11;8.80;70.80
44607;DHT22;30315;46.072;14.474;2023-11-19T10:58:16;8.80;70.60
44607;DHT22;30315;46.072;14.474;2023-11-19T11:00:54;8.80;70.40
44607;DHT22;30315;46.072;14.474;2023-11-19T11:03:53;8.90;70.50
44607;DHT22;30315;46.072;14.474;2023-11-19T11:06:35;9.00;70.30
44607;DHT22;30315;46.072;14.474;2023-11-19T11:09:03;9.00;70.20
44607;DHT22;30315;46.072;14.474;2023-11-19T11:11:50;9.00;70.00
44607;DHT22;30315;46.072;14.474;2023-11-19T11:14:52;9.30;70.10
44607;DHT22;30315;46.072;14.474;2023-11-19T11:17:32;9.10;69.90
44607;DHT22;30315;46.072;14.474;2023-11-19T11:20:12;9.10;69.60
44607;DHT22;30315;46.072;14.474;2023-11-19T11:38:08;9.70;70.10
44607;DHT22;30315;46.072;14.474;2023-11-19T11:40:42;9.80;69.40
44607;DHT22;30315;46.072;14.474;2023-11-19T11:49:25;10.20;67.80
44607;DHT22;30315;46.072;14.474;2023-11-19T11:52:13;10.40;67.70
44607;DHT22;30315;46.072;14.474;2023-11-19T11:54:47;10.40;67.30
44607;DHT22;30315;46.072;14.474;2023-11-19T12:00:36;10.60;67.40
44607;DHT22;30315;46.072;14.474;2023-11-19T12:03:35;10.70;67.50
44607;DHT22;30315;46.072;14.474;2023-11-19T12:06:34;10.90;67.70
44607;DHT22;30315;46.072;14.474;2023-11-19T12:09:12;10.90;67.20
44607;DHT22;30315;46.072;14.474;2023-11-19T12:12:23;11.20;67.00
44607;DHT22;30315;46.072;14.474;2023-11-19T12:15:14;11.30;67.10
44607;DHT22;30315;46.072;14.474;2023-11-19T12:17:58;11.40;66.70
44607;DHT22;30315;46.072;14.474;2023-11-19T12:20:59;11.50;66.60
44607;DHT22;30315;46.072;14.474;2023-11-19T12:24:15;11.70;66.00
44607;DHT22;30315;46.072;14.474;2023-11-19T12:27:42;11.80;65.90
44607;DHT22;30315;46.072;14.474;2023-11-19T12:30:23;12.00;66.30
44607;DHT22;30315;46.072;14.474;2023-11-19T12:33:26;12.10;66.40
44607;DHT22;30315;46.072;14.474;2023-11-19T12:36:17;12.30;66.10
44607;DHT22;30315;46.072;14.474;2023-11-19T12:39:10;12.50;65.80
44607;DHT22;30315;46.072;14.474;2023-11-19T12:41:50;12.60;65.30
44607;DHT22;30315;46.072;14.474;2023-11-19T12:48:55;12.80;65.00
44607;DHT22;30315;46.072;14.474;2023-11-19T12:51:42;13.20;64.70
44607;DHT22;30315;46.072;14.474;2023-11-19T12:54:17;13.30;64.10
44607;DHT22;30315;46.072;14.474;2023-11-19T12:56:56;13.40;63.70
44607;DHT22;30315;46.072;14.474;2023-11-19T12:59:32;13.50;63.30
44607;DHT22;30315;46.072;14.474;2023-11-19T13:02:00;13.60;63.30
44607;DHT22;30315;46.072;14.474;2023-11-19T13:21:45;14.40;61.90
44607;DHT22;30315;46.072;14.474;2023-11-19T13:24:42;14.50;61.50
44607;DHT22;30315;46.072;14.474;2023-11-19T13:31:55;14.70;61.00
44607;DHT22;30315;46.072;14.474;2023-11-19T13:34:24;14.50;60.60
44607;DHT22;30315;46.072;14.474;2023-11-19T13:49:24;15.10;59.60
44607;DHT22;30315;46.072;14.474;2023-11-19T14:06:04;15.40;59.00
44607;DHT22;30315;46.072;14.474;2023-11-19T14:09:18;15.30;58.20
44607;DHT22;30315;46.072;14.474;2023-11-19T14:11:47;15.40;59.20
44607;DHT22;30315;46.072;14.474;2023-11-19T14:14:22;15.40;58.00
44607;DHT22;30315;46.072;14.474;2023-11-19T14:17:21;15.40;58.10
44607;DHT22;30315;46.072;14.474;2023-11-19T14:20:29;15.50;57.50
44607;DHT22;30315;46.072;14.474;2023-11-19T14:23:05;15.40;57.00
44607;DHT22;30315;46.072;14.474;2023-11-19T14:32:16;15.60;56.20
44607;DHT22;30315;46.072;14.474;2023-11-19T14:35:03;15.60;55.90
44607;DHT22;30315;46.072;14.474;2023-11-19T14:37:45;15.50;55.90
44607;DHT22;30315;46.072;14.474;2023-11-19T14:41:01;15.50;55.50
44607;DHT22;30315;46.072;14.474;2023-11-19T14:47:41;15.20;55.50
44607;DHT22;30315;46.072;14.474;2023-11-19T14:50:16;15.10;55.50
44607;DHT22;30315;46.072;14.474;2023-11-19T14:52:56;15.00;55.90
44607;DHT22;30315;46.072;14.474;2023-11-19T14:55:23;14.90;56.10
44607;DHT22;30315;46.072;14.474;2023-11-19T15:01:51;14.70;56.20
44607;DHT22;30315;46.072;14.474;2023-11-19T15:07:28;14.40;56.70
44607;DHT22;30315;46.072;14.474;2023-11-19T15:09:56;14.30;56.90
44607;DHT22;30315;46.072;14.474;2023-11-19T15:15:37;14.10;57.20
44607;DHT22;30315;46.072;14.474;2023-11-19T15:19:28;14.00;57.40
44607;DHT22;30315;46.072;14.474;2023-11-19T15:21:59;13.90;57.90
44607;DHT22;30315;46.072;14.474;2023-11-19T15:24:35;13.80;57.90
44607;DHT22;30315;46.072;14.474;2023-11-19T15:27:18;13.80;58.00
44607;DHT22;30315;46.072;14.474;2023-11-19T15:29:46;13.70;58.20
44607;DHT22;30315;46.072;14.474;2023-11-19T15:32:13;13.60;58.20
44607;DHT22;30315;46.072;14.474;2023-11-19T15:34:47;13.60;58.50
44607;DHT22;30315;46.072;14.474;2023-11-19T15:37:20;13.50;58.60
44607;DHT22;30315;46.072;14.474;2023-11-19T15:40:24;13.50;58.90
44607;DHT22;30315;46.072;14.474;2023-11-19T15:43:16;13.50;59.20
44607;DHT22;30315;46.072;14.474;2023-11-19T15:45:45;13.40;59.80
44607;DHT22;30315;46.072;14.474;2023-11-19T15:48:27;13.40;59.50
44607;DHT22;30315;46.072;14.474;2023-11-19T15:50:55;13.40;59.70
44607;DHT22;30315;46.072;14.474;2023-11-19T15:53:24;13.40;60.00
44607;DHT22;30315;46.072;14.474;2023-11-19T15:56:13;13.30;60.10
44607;DHT22;30315;46.072;14.474;2023-11-19T15:58:49;13.30;60.40
44607;DHT22;30315;46.072;14.474;2023-11-19T16:01:49;13.20;60.40
44607;DHT22;30315;46.072;14.474;2023-11-19T16:04:22;13.20;60.70
44607;DHT22;30315;46.072;14.474;2023-11-19T16:06:50;13.30;60.90
44607;DHT22;30315;46.072;14.474;2023-11-19T16:09:28;13.20;61.00
44607;DHT22;30315;46.072;14.474;2023-11-19T16:11:56;13.20;61.30
44607;DHT22;30315;46.072;14.474;2023-11-19T16:14:37;13.20;61.50
44607;DHT22;30315;46.072;14.474;2023-11-19T16:17:14;13.10;61.70
44607;DHT22;30315;46.072;14.474;2023-11-19T16:22:32;13.10;62.50
44607;DHT22;30315;46.072;14.474;2023-11-19T16:25:20;13.00;62.60
44607;DHT22;30315;46.072;14.474;2023-11-19T16:28:00;13.00;62.70
44607;DHT22;30315;46.072;14.474;2023-11-19T16:30:27;13.00;62.70
44607;DHT22;30315;46.072;14.474;2023-11-19T16:32:58;13.00;63.00
44607;DHT22;30315;46.072;14.474;2023-11-19T16:36:06;12.90;63.20
44607;DHT22;30315;46.072;14.474;2023-11-19T16:38:34;12.80;63.20
44607;DHT22;30315;46.072;14.474;2023-11-19T16:41:17;12.80;63.40
44607;DHT22;30315;46.072;14.474;2023-11-19T16:44:55;12.80;63.60
44607;DHT22;30315;46.072;14.474;2023-11-19T16:47:54;12.80;63.50
44607;DHT22;30315;46.072;14.474;2023-11-19T16:50:55;12.70;63.70
44607;DHT22;30315;46.072;14.474;2023-11-19T16:54:12;12.80;63.80
44607;DHT22;30315;46.072;14.474;2023-11-19T16:59:39;12.70;64.10
44607;DHT22;30315;46.072;14.474;2023-11-19T17:02:29;12.70;64.20
44607;DHT22;30315;46.072;14.474;2023-11-19T17:05:21;12.60;64.30
44607;DHT22;30315;46.072;14.474;2023-11-19T17:08:35;12.60;64.50
44607;DHT22;30315;46.072;14.474;2023-11-19T17:11:53;12.60;64.70
44607;DHT22;30315;46.072;14.474;2023-11-19T17:14:28;12.60;64.90
44607;DHT22;30315;46.072;14.474;2023-11-19T17:18:13;12.60;64.80
44607;DHT22;30315;46.072;14.474;2023-11-19T17:24:47;12.50;64.70
44607;DHT22;30315;46.072;14.474;2023-11-19T17:27:34;12.50;64.70
44607;DHT22;30315;46.072;14.474;2023-11-19T17:30:07;12.40;64.70
44607;DHT22;30315;46.072;14.474;2023-11-19T17:32:40;12.50;64.80
44607;DHT22;30315;46.072;14.474;2023-11-19T17:35:12;12.40;64.90
44607;DHT22;30315;46.072;14.474;2023-11-19T17:38:18;12.50;64.80
44607;DHT22;30315;46.072;14.474;2023-11-19T17:40:53;12.60;65.00
44607;DHT22;30315;46.072;14.474;2023-11-19T17:43:41;12.50;64.70
44607;DHT22;30315;46.072;14.474;2023-11-19T17:46:27;12.50;64.90
44607;DHT22;30315;46.072;14.474;2023-11-19T17:49:02;12.40;64.90
44607;DHT22;30315;46.072;14.474;2023-11-19T17:54:55;12.40;64.40
44607;DHT22;30315;46.072;14.474;2023-11-19T17:57:25;12.50;64.50
44607;DHT22;30315;46.072;14.474;2023-11-19T18:00:09;12.40;64.40
44607;DHT22;30315;46.072;14.474;2023-11-19T18:03:11;12.00;64.20
44607;DHT22;30315;46.072;14.474;2023-11-19T18:05:46;12.30;64.50
44607;DHT22;30315;46.072;14.474;2023-11-19T18:08:17;12.40;64.50
44607;DHT22;30315;46.072;14.474;2023-11-19T18:15:51;12.40;64.50
44607;DHT22;30315;46.072;14.474;2023-11-19T18:18:28;12.30;64.30
44607;DHT22;30315;46.072;14.474;2023-11-19T18:24:15;12.30;64.30
44607;DHT22;30315;46.072;14.474;2023-11-19T18:26:44;12.20;64.40
44607;DHT22;30315;46.072;14.474;2023-11-19T18:29:34;12.20;64.70
44607;DHT22;30315;46.072;14.474;2023-11-19T18:33:00;12.10;65.90
44607;DHT22;30315;46.072;14.474;2023-11-19T18:36:08;12.00;65.60
44607;DHT22;30315;46.072;14.474;2023-11-19T18:38:54;11.80;65.70
44607;DHT22;30315;46.072;14.474;2023-11-19T18:42:25;11.80;66.10
44607;DHT22;30315;46.072;14.474;2023-11-19T18:45:30;11.70;66.70
44607;DHT22;30315;46.072;14.474;2023-11-19T18:48:41;11.50;66.80
44607;DHT22;30315;46.072;14.474;2023-11-19T18:51:13;11.80;67.40
44607;DHT22;30315;46.072;14.474;2023-11-19T18:53:43;11.40;67.20
44607;DHT22;30315;46.072;14.474;2023-11-19T18:57:25;11.30;67.50
44607;DHT22;30315;46.072;14.474;2023-11-19T19:00:54;11.20;68.00
44607;DHT22;30315;46.072;14.474;2023-11-19T19:03:24;11.10;68.20
44607;DHT22;30315;46.072;14.474;2023-11-19T19:05:55;11.00;68.30
44607;DHT22;30315;46.072;14.474;2023-11-19T19:08:31;10.90;68.40
44607;DHT22;30315;46.072;14.474;2023-11-19T19:11:01;10.90;68.80
44607;DHT22;30315;46.072;14.474;2023-11-19T19:13:32;10.80;68.90